createdAt,value
2018-02-08T00:02:01.771Z,98.20
2018-02-08T00:04:31.038Z,98.20
2018-02-08T00:07:00.432Z,98.10
2018-02-08T00:09:30.604Z,98.00
2018-02-08T00:11:59.857Z,98.10
2018-02-08T00:14:29.125Z,98.40
2018-02-08T00:16:58.377Z,98.30
2018-02-08T00:19:27.642Z,98.40
2018-02-08T00:21:56.887Z,98.60
2018-02-08T00:24:26.917Z,98.50
2018-02-08T00:26:56.183Z,98.50
2018-02-08T00:29:25.540Z,98.40
2018-02-08T00:31:54.810Z,98.60
2018-02-08T00:34:24.062Z,98.80
2018-02-08T00:36:53.530Z,98.90
2018-02-08T00:39:22.807Z,99.00
2018-02-08T00:41:52.173Z,98.80
2018-02-08T00:44:21.525Z,98.90
2018-02-08T00:46:52.328Z,99.00
2018-02-08T00:49:21.606Z,99.00
2018-02-08T00:51:50.904Z,99.00
2018-02-08T00:54:20.148Z,99.00
2018-02-08T00:56:49.428Z,99.10
2018-02-08T00:59:18.689Z,99.10
2018-02-08T01:01:47.948Z,99.20
2018-02-08T01:04:17.969Z,99.60
2018-02-08T01:06:47.261Z,99.50
2018-02-08T01:09:16.760Z,99.60
2018-02-08T01:11:46.017Z,99.50
2018-02-08T01:14:15.249Z,99.60
2018-02-08T01:16:44.523Z,99.50
2018-02-08T01:19:13.787Z,99.50
2018-02-08T01:21:43.178Z,99.30
2018-02-08T01:24:13.226Z,99.40
2018-02-08T01:26:42.490Z,99.40
2018-02-08T01:29:11.748Z,99.30
2018-02-08T01:31:41.000Z,98.10
2018-02-08T01:34:11.030Z,99.00
2018-02-08T01:36:40.278Z,98.90
2018-02-08T01:39:09.664Z,99.00
2018-02-08T01:41:39.062Z,98.90
2018-02-08T01:44:08.325Z,98.90
2018-02-08T01:46:37.580Z,99.10
2018-02-08T01:49:06.826Z,99.00
2018-02-08T01:51:36.247Z,98.90
2018-02-08T01:54:06.231Z,99.30
2018-02-08T01:56:36.761Z,98.80
2018-02-08T01:59:05.973Z,98.80
2018-02-08T02:01:35.230Z,98.60
2018-02-08T02:04:04.523Z,99.00
2018-02-08T02:06:33.779Z,99.00
2018-02-08T02:09:03.065Z,98.70
2018-02-08T02:11:32.310Z,98.70
2018-02-08T02:14:01.558Z,98.70
2018-02-08T02:16:30.830Z,98.80
2018-02-08T02:19:00.112Z,99.10
2018-02-08T02:21:29.328Z,99.10
2018-02-08T02:23:59.173Z,98.80
2018-02-08T02:26:28.435Z,99.00
2018-02-08T02:28:57.741Z,99.10
2018-02-08T02:31:26.998Z,99.00
2018-02-08T02:33:56.235Z,99.00
2018-02-08T02:36:25.496Z,98.80
2018-02-08T02:38:55.622Z,98.30
2018-02-08T02:41:25.656Z,98.50
2018-02-08T02:43:54.916Z,98.50
2018-02-08T02:46:24.416Z,98.40
2018-02-08T02:48:53.674Z,98.20
2018-02-08T02:51:22.967Z,98.40
2018-02-08T02:53:52.278Z,98.40
2018-02-08T02:56:21.525Z,98.50
2018-02-08T02:58:50.787Z,98.20
2018-02-08T03:01:20.058Z,98.00
2018-02-08T03:03:49.284Z,98.10
2018-02-08T03:06:18.550Z,98.40
2018-02-08T03:08:48.587Z,98.90
2018-02-08T03:11:17.861Z,98.90
2018-02-08T03:13:47.135Z,98.90
2018-02-08T03:16:16.399Z,99.10
2018-02-08T03:18:45.669Z,99.20
2018-02-08T03:21:15.177Z,99.30
2018-02-08T03:23:44.441Z,99.30
2018-02-08T03:26:13.699Z,99.80
2018-02-08T03:28:42.960Z,99.40
2018-02-08T03:31:13.057Z,99.40
2018-02-08T03:33:42.321Z,99.40
2018-02-08T03:36:11.584Z,99.60
2018-02-08T03:38:40.843Z,99.60
2018-02-08T03:41:10.173Z,99.80
2018-02-08T03:43:39.394Z,99.90
2018-02-08T03:46:08.817Z,99.90
2018-02-08T03:48:38.862Z,99.90
2018-02-08T03:51:08.129Z,99.90
2018-02-08T03:53:37.435Z,99.90
2018-02-08T03:56:06.757Z,99.90
2018-02-08T03:58:36.010Z,99.90
2018-02-08T04:01:05.305Z,99.90
2018-02-08T04:03:34.762Z,99.90
2018-02-08T04:06:04.786Z,99.90
2018-02-08T04:08:34.067Z,99.90
2018-02-08T04:11:03.336Z,99.90
2018-02-08T04:13:32.621Z,99.90
2018-02-08T04:16:02.078Z,99.90
2018-02-08T04:18:32.120Z,99.90
2018-02-08T04:21:01.369Z,99.90
2018-02-08T04:23:30.686Z,99.90
2018-02-08T04:25:59.962Z,99.90
2018-02-08T04:28:29.221Z,99.90
2018-02-08T04:30:58.514Z,99.90
2018-02-08T04:33:27.773Z,99.90
2018-02-08T04:35:57.030Z,99.90
2018-02-08T04:38:43.883Z,99.90
2018-02-08T04:41:30.830Z,99.90
2018-02-08T04:47:28.881Z,99.90
2018-02-08T04:49:58.118Z,99.90
2018-02-08T04:52:27.412Z,99.90
2018-02-08T04:54:56.690Z,99.90
2018-02-08T04:57:26.248Z,99.90
2018-02-08T04:59:55.511Z,99.90
2018-02-08T05:02:24.770Z,99.90
2018-02-08T05:04:54.041Z,99.90
2018-02-08T05:07:24.048Z,99.90
2018-02-08T05:09:53.309Z,99.90
2018-02-08T05:12:22.647Z,99.90
2018-02-08T05:14:52.095Z,99.90
2018-02-08T05:17:22.119Z,99.90
2018-02-08T05:19:51.421Z,99.90
2018-02-08T05:22:20.717Z,99.90
2018-02-08T05:24:49.978Z,99.90
2018-02-08T05:27:19.304Z,99.90
2018-02-08T05:29:48.548Z,99.90
2018-02-08T05:32:17.825Z,99.90
2018-02-08T05:34:47.092Z,99.90
2018-02-08T05:37:16.376Z,99.90
2018-02-08T05:39:45.655Z,99.90
2018-02-08T05:42:14.893Z,99.90
2018-02-08T05:44:44.229Z,99.90
2018-02-08T05:47:13.488Z,99.90
2018-02-08T05:49:43.509Z,99.90
2018-02-08T05:52:12.823Z,99.90
2018-02-08T05:54:42.304Z,99.90
2018-02-08T05:57:11.564Z,99.90
2018-02-08T05:59:40.842Z,99.90
2018-02-08T06:02:10.101Z,99.90
2018-02-08T06:04:39.672Z,99.90
2018-02-08T06:07:09.160Z,99.90
2018-02-08T06:09:38.416Z,99.90
2018-02-08T06:12:07.700Z,99.90
2018-02-08T06:14:37.845Z,99.90
2018-02-08T06:17:07.121Z,99.90
2018-02-08T06:19:37.148Z,99.90
2018-02-08T06:22:06.426Z,99.90
2018-02-08T06:24:35.676Z,99.90
2018-02-08T06:27:04.960Z,99.90
2018-02-08T06:29:34.231Z,99.90
2018-02-08T06:32:04.276Z,99.90
2018-02-08T06:34:33.537Z,99.90
2018-02-08T06:37:02.793Z,99.90
2018-02-08T06:39:32.053Z,99.90
2018-02-08T06:42:02.088Z,99.90
2018-02-08T06:44:31.601Z,99.90
2018-02-08T06:47:00.870Z,99.90
2018-02-08T06:49:30.149Z,99.90
2018-02-08T06:51:59.524Z,99.90
2018-02-08T06:54:28.909Z,99.90
2018-02-08T06:56:58.407Z,99.90
2018-02-08T06:59:28.738Z,99.90
2018-02-08T07:01:58.905Z,99.90
2018-02-08T07:04:28.170Z,99.90
2018-02-08T07:06:57.460Z,99.90
2018-02-08T07:09:27.721Z,99.90
2018-02-08T07:11:56.977Z,99.90
2018-02-08T07:14:26.262Z,99.90
2018-02-08T07:16:55.547Z,99.90
2018-02-08T07:19:24.793Z,99.90
2018-02-08T07:21:54.071Z,99.90
2018-02-08T07:24:24.089Z,99.90
2018-02-08T07:26:53.485Z,99.90
2018-02-08T07:29:23.501Z,99.90
2018-02-08T07:31:52.786Z,99.90
2018-02-08T07:34:22.054Z,99.90
2018-02-08T07:36:51.331Z,99.90
2018-02-08T07:39:20.588Z,99.90
2018-02-08T07:41:50.607Z,99.60
2018-02-08T07:44:19.874Z,99.50
2018-02-08T07:46:49.133Z,99.40
2018-02-08T07:49:18.406Z,99.00
2018-02-08T07:51:47.653Z,98.70
2018-02-08T07:54:16.918Z,98.50
2018-02-08T07:56:47.037Z,98.10
2018-02-08T07:59:16.286Z,97.90
2018-02-08T08:01:45.553Z,97.10
2018-02-08T08:04:14.817Z,96.10
2018-02-08T08:06:44.085Z,94.40
2018-02-08T08:09:13.342Z,92.40
2018-02-08T08:11:42.609Z,91.90
2018-02-08T08:14:12.069Z,90.50
2018-02-08T08:16:41.316Z,88.10
2018-02-08T08:19:10.567Z,83.80
2018-02-08T08:21:39.818Z,79.70
2018-02-08T08:24:09.071Z,77.60
2018-02-08T08:26:39.102Z,72.60
2018-02-08T08:29:08.340Z,72.50
2018-02-08T08:31:37.650Z,70.40
2018-02-08T08:34:07.186Z,67.10
2018-02-08T08:36:36.412Z,64.60
2018-02-08T08:39:05.682Z,62.80
2018-02-08T08:41:34.948Z,61.00
2018-02-08T08:44:04.238Z,58.60
2018-02-08T08:46:33.502Z,56.90
2018-02-08T08:49:02.754Z,56.10
2018-02-08T08:51:32.101Z,54.60
2018-02-08T08:54:01.365Z,51.70
2018-02-08T08:56:30.621Z,51.00
2018-02-08T08:58:59.873Z,50.00
2018-02-08T09:01:29.169Z,48.40
2018-02-08T09:03:58.705Z,47.50
2018-02-08T09:06:28.747Z,46.30
2018-02-08T09:08:57.995Z,46.20
2018-02-08T09:11:27.273Z,45.30
2018-02-08T09:13:56.534Z,45.20
2018-02-08T09:16:26.573Z,43.30
2018-02-08T09:18:55.825Z,43.30
2018-02-08T09:21:25.101Z,42.40
2018-02-08T09:23:54.467Z,42.50
2018-02-08T09:26:23.733Z,43.30
2018-02-08T09:28:52.991Z,43.10
2018-02-08T09:31:22.275Z,42.40
2018-02-08T09:33:51.581Z,41.30
2018-02-08T09:36:21.606Z,40.40
2018-02-08T09:38:50.874Z,40.40
2018-02-08T09:41:20.134Z,40.80
2018-02-08T09:43:49.397Z,39.80
2018-02-08T09:46:18.637Z,38.60
2018-02-08T09:48:47.925Z,41.10
2018-02-08T09:51:17.209Z,39.90
2018-02-08T09:53:46.518Z,38.60
2018-02-08T09:56:15.786Z,38.00
2018-02-08T09:58:45.022Z,37.90
2018-02-08T10:01:14.369Z,38.10
2018-02-08T10:03:43.706Z,37.50
2018-02-08T10:06:13.197Z,38.50
2018-02-08T10:08:42.448Z,37.50
2018-02-08T10:11:11.738Z,35.70
2018-02-08T10:13:41.016Z,35.90
2018-02-08T10:16:10.474Z,35.50
2018-02-08T10:18:39.780Z,34.70
2018-02-08T10:21:09.045Z,36.30
2018-02-08T10:23:39.042Z,35.30
2018-02-08T10:26:08.317Z,35.50
2018-02-08T10:28:38.345Z,34.50
2018-02-08T10:31:07.594Z,34.50
2018-02-08T10:33:36.869Z,35.40
2018-02-08T10:36:06.645Z,34.60
2018-02-08T10:38:35.925Z,35.10
2018-02-08T10:41:05.203Z,37.20
2018-02-08T10:43:34.462Z,37.60
2018-02-08T10:46:04.554Z,38.40
2018-02-08T10:48:34.057Z,38.40
2018-02-08T10:51:03.313Z,38.60
2018-02-08T10:53:32.565Z,37.80
2018-02-08T10:56:01.853Z,38.00
2018-02-08T10:58:31.121Z,38.10
2018-02-08T11:01:00.356Z,37.30
2018-02-08T11:03:30.157Z,37.30
2018-02-08T11:05:59.439Z,36.90
2018-02-08T11:08:28.727Z,36.40
2018-02-08T11:10:57.980Z,35.30
2018-02-08T11:13:27.233Z,33.60
2018-02-08T11:15:56.508Z,33.00
2018-02-08T11:18:25.773Z,33.70
2018-02-08T11:20:55.086Z,34.50
2018-02-08T11:23:24.372Z,36.10
2018-02-08T11:25:53.619Z,34.80
2018-02-08T11:28:23.673Z,35.00
2018-02-08T11:30:53.594Z,34.90
2018-02-08T11:33:22.862Z,34.50
2018-02-08T11:35:52.174Z,33.30
2018-02-08T11:38:21.400Z,32.60
2018-02-08T11:40:50.682Z,31.80
2018-02-08T11:43:19.931Z,31.80
2018-02-08T11:45:49.208Z,32.90
2018-02-08T11:48:18.474Z,35.80
2018-02-08T11:50:47.743Z,36.50
2018-02-08T11:53:17.021Z,39.70
2018-02-08T11:55:46.291Z,42.00
2018-02-08T11:58:15.804Z,44.30
2018-02-08T12:00:45.053Z,45.70
2018-02-08T12:03:15.098Z,50.00
2018-02-08T12:05:44.453Z,50.00
2018-02-08T12:08:13.701Z,49.40
2018-02-08T12:10:42.966Z,49.50
2018-02-08T12:13:12.232Z,49.90
2018-02-08T12:15:41.521Z,51.60
2018-02-08T12:18:10.811Z,53.30
2018-02-08T12:20:40.061Z,54.90
2018-02-08T12:23:09.321Z,56.30
2018-02-08T12:25:38.590Z,56.50
2018-02-08T12:28:07.977Z,57.70
2018-02-08T12:30:37.217Z,59.00
2018-02-08T12:33:06.504Z,59.10
2018-02-08T12:35:35.764Z,58.60
2018-02-08T12:38:05.024Z,59.20
2018-02-08T12:40:34.269Z,59.50
2018-02-08T12:43:03.611Z,61.10
2018-02-08T12:45:33.627Z,65.50
2018-02-08T12:48:02.947Z,65.50
2018-02-08T12:50:32.131Z,66.00
2018-02-08T12:53:01.406Z,65.60
2018-02-08T12:55:30.673Z,67.30
2018-02-08T12:57:59.920Z,67.70
2018-02-08T13:00:29.182Z,68.00
2018-02-08T13:02:58.497Z,67.80
2018-02-08T13:05:28.012Z,68.40
2018-02-08T13:07:58.036Z,69.40
2018-02-08T13:10:27.285Z,69.30
2018-02-08T13:12:56.557Z,69.30
2018-02-08T13:15:25.801Z,69.00
2018-02-08T13:17:55.082Z,69.00
2018-02-08T13:20:24.308Z,69.60
2018-02-08T13:22:53.572Z,70.20
2018-02-08T13:25:22.821Z,70.50
2018-02-08T13:27:52.836Z,71.80
2018-02-08T13:30:22.090Z,71.80
2018-02-08T13:32:51.329Z,70.70
2018-02-08T13:35:20.597Z,70.90
2018-02-08T13:37:49.837Z,71.40
2018-02-08T13:43:24.142Z,71.30
2018-02-08T13:45:53.405Z,72.90
2018-02-08T13:48:22.901Z,72.30
2018-02-08T13:54:04.437Z,72.50
2018-02-08T13:56:39.968Z,72.20
2018-02-08T13:59:14.833Z,71.90
2018-02-08T14:01:46.333Z,72.10
2018-02-08T14:04:15.585Z,73.10
2018-02-08T14:06:44.849Z,73.90
2018-02-08T14:09:14.095Z,74.80
2018-02-08T14:11:43.361Z,73.00
2018-02-08T14:14:12.602Z,74.00
2018-02-08T14:16:41.904Z,73.50
2018-02-08T14:19:11.881Z,72.60
2018-02-08T14:21:41.128Z,72.60
2018-02-08T14:24:10.385Z,72.70
2018-02-08T14:26:39.625Z,72.60
2018-02-08T14:29:08.878Z,74.00
2018-02-08T14:31:38.888Z,73.20
2018-02-08T14:34:08.165Z,73.20
2018-02-08T14:36:37.413Z,73.30
2018-02-08T14:39:06.653Z,74.60
2018-02-08T14:41:36.110Z,74.10
2018-02-08T14:44:06.860Z,74.50
2018-02-08T14:46:36.127Z,74.50
2018-02-08T14:49:07.093Z,74.00
2018-02-08T14:51:36.607Z,74.00
2018-02-08T14:54:05.827Z,74.10
2018-02-08T14:56:35.065Z,74.90
2018-02-08T14:59:04.317Z,75.90
2018-02-08T15:01:33.565Z,77.10
2018-02-08T15:04:03.597Z,77.30
2018-02-08T15:06:33.601Z,78.40
2018-02-08T15:09:03.624Z,78.40
2018-02-08T15:11:33.637Z,78.90
2018-02-08T15:14:02.934Z,78.80
2018-02-08T15:16:32.192Z,79.50
2018-02-08T15:19:01.488Z,80.10
2018-02-08T15:21:31.497Z,81.10
2018-02-08T15:24:00.758Z,80.90
2018-02-08T15:26:30.020Z,81.30
2018-02-08T15:28:59.278Z,81.20
2018-02-08T15:31:29.291Z,84.00
2018-02-08T15:33:58.561Z,84.00
2018-02-08T15:36:27.809Z,86.10
2018-02-08T15:38:57.096Z,87.50
2018-02-08T15:41:26.337Z,87.40
2018-02-08T15:43:55.580Z,87.40
2018-02-08T15:46:25.325Z,87.90
2018-02-08T15:48:54.623Z,88.30
2018-02-08T15:51:23.897Z,89.30
2018-02-08T15:53:53.891Z,90.00
2018-02-08T15:56:23.136Z,90.50
2018-02-08T15:58:52.499Z,90.90
2018-02-08T16:01:21.764Z,91.30
2018-02-08T16:03:51.034Z,91.80
2018-02-08T16:06:20.269Z,92.00
2018-02-08T16:08:49.529Z,92.60
2018-02-08T16:11:18.794Z,92.80
2018-02-08T16:13:48.048Z,92.80
2018-02-08T16:16:18.081Z,93.60
2018-02-08T16:18:47.341Z,93.60
2018-02-08T16:21:16.589Z,93.90
2018-02-08T16:23:45.830Z,94.10
2018-02-08T16:26:15.114Z,94.40
2018-02-08T16:28:44.379Z,94.30
2018-02-08T16:31:13.689Z,94.40
2018-02-08T16:33:43.018Z,94.80
2018-02-08T16:36:12.266Z,94.90
2018-02-08T16:38:41.534Z,95.00
2018-02-08T16:41:10.791Z,95.30
2018-02-08T16:43:40.058Z,95.40
2018-02-08T16:46:09.424Z,95.40
2018-02-08T16:48:38.722Z,95.40
2018-02-08T16:51:08.808Z,95.60
2018-02-08T16:53:38.848Z,95.70
2018-02-08T16:56:08.094Z,95.70
2018-02-08T16:58:37.344Z,95.50
2018-02-08T17:01:06.732Z,95.90
2018-02-08T17:03:35.998Z,96.00
2018-02-08T17:06:05.305Z,96.20
2018-02-08T17:08:34.610Z,96.40
2018-02-08T17:11:03.902Z,96.20
2018-02-08T17:13:33.157Z,96.30
2018-02-08T17:16:02.418Z,96.20
2018-02-08T17:18:31.685Z,96.40
2018-02-08T17:21:01.669Z,96.50
2018-02-08T17:23:30.921Z,96.40
2018-02-08T17:26:01.084Z,96.60
2018-02-08T17:28:31.088Z,96.70
2018-02-08T17:31:00.310Z,96.70
2018-02-08T17:33:29.568Z,96.90
2018-02-08T17:35:58.812Z,97.00
2018-02-08T17:38:28.239Z,96.90
2018-02-08T17:40:57.541Z,96.90
2018-02-08T17:43:26.806Z,96.90
2018-02-08T17:45:56.123Z,96.90
2018-02-08T17:48:25.395Z,97.00
2018-02-08T17:50:55.426Z,97.00
2018-02-08T17:53:24.669Z,97.00
2018-02-08T17:55:53.945Z,97.00
2018-02-08T17:58:23.189Z,97.30
2018-02-08T18:00:52.473Z,97.00
2018-02-08T18:03:21.757Z,97.10
2018-02-08T18:05:51.030Z,97.10
2018-02-08T18:08:20.282Z,97.20
2018-02-08T18:10:49.551Z,97.30
2018-02-08T18:13:19.059Z,97.50
2018-02-08T18:15:48.320Z,97.60
2018-02-08T18:18:18.550Z,97.90
2018-02-08T18:20:47.805Z,97.90
2018-02-08T18:23:17.113Z,97.90
2018-02-08T18:25:46.408Z,98.10
2018-02-08T18:28:15.681Z,98.20
2018-02-08T18:30:44.953Z,98.20
2018-02-08T18:33:15.010Z,98.40
2018-02-08T18:35:44.284Z,98.40
2018-02-08T18:38:13.602Z,98.70
2018-02-08T18:40:42.889Z,98.80
2018-02-08T18:43:12.939Z,99.00
2018-02-08T18:45:42.228Z,99.00
2018-02-08T18:48:12.338Z,98.90
2018-02-08T18:50:41.605Z,98.90
2018-02-08T18:53:10.848Z,99.00
2018-02-08T18:55:40.333Z,99.00
2018-02-08T18:58:09.650Z,99.40
2018-02-08T19:00:38.930Z,99.10
2018-02-08T19:03:08.634Z,99.30
2018-02-08T19:05:37.995Z,99.40
2018-02-08T19:08:07.261Z,99.50
2018-02-08T19:10:36.542Z,99.40
2018-02-08T19:13:05.959Z,99.30
2018-02-08T19:15:35.261Z,99.50
2018-02-08T19:18:04.506Z,99.70
2018-02-08T19:20:33.802Z,99.60
2018-02-08T19:23:03.115Z,99.60
2018-02-08T19:25:32.362Z,99.60
2018-02-08T19:28:01.709Z,99.50
2018-02-08T19:30:30.978Z,99.30
2018-02-08T19:33:00.349Z,99.50
2018-02-08T19:35:29.962Z,99.50
2018-02-08T19:37:59.224Z,99.50
2018-02-08T19:40:28.473Z,99.40
2018-02-08T19:42:57.773Z,99.40
2018-02-08T19:45:27.033Z,99.40
2018-02-08T19:47:56.302Z,99.50
2018-02-08T19:50:25.556Z,99.50
2018-02-08T19:52:54.812Z,99.50
2018-02-08T19:55:24.551Z,99.40
2018-02-08T19:57:54.561Z,99.80
2018-02-08T20:00:24.667Z,99.80
2018-02-08T20:02:54.826Z,99.80
2018-02-08T20:05:24.113Z,99.70
2018-02-08T20:07:54.316Z,99.80
2018-02-08T20:10:25.084Z,99.80
2018-02-08T20:12:54.386Z,99.80
2018-02-08T20:15:26.288Z,99.90
2018-02-08T20:17:55.596Z,99.90
2018-02-08T20:20:24.837Z,99.90
2018-02-08T20:22:54.126Z,99.90
2018-02-08T20:25:42.060Z,99.90
2018-02-08T20:28:11.358Z,99.90
2018-02-08T20:30:40.628Z,99.90
2018-02-08T20:33:09.892Z,99.90
2018-02-08T20:35:39.225Z,99.90
2018-02-08T20:38:08.526Z,99.90
2018-02-08T20:40:38.601Z,99.90
2018-02-08T20:43:15.474Z,99.90
2018-02-08T20:45:44.737Z,99.90
2018-02-08T20:48:14.773Z,99.90
2018-02-08T20:50:44.068Z,99.90
2018-02-08T20:53:14.098Z,99.90
2018-02-08T20:55:43.393Z,99.90
2018-02-08T20:58:12.662Z,99.90
2018-02-08T21:00:42.722Z,99.90
2018-02-08T21:03:11.949Z,99.90
2018-02-08T21:05:41.384Z,99.90
2018-02-08T21:08:11.010Z,99.90
2018-02-08T21:10:41.044Z,99.90
2018-02-08T21:13:10.307Z,99.90
2018-02-08T21:15:39.588Z,99.90
2018-02-08T21:18:08.870Z,99.90
2018-02-08T21:20:38.137Z,99.90
2018-02-08T21:23:08.177Z,99.90
2018-02-08T21:25:37.458Z,99.90
2018-02-08T21:28:07.562Z,99.90
2018-02-08T21:30:36.845Z,99.90
2018-02-08T21:33:06.116Z,99.90
2018-02-08T21:35:35.415Z,99.90
2018-02-08T21:38:04.689Z,99.90
2018-02-08T21:40:33.953Z,99.90
2018-02-08T21:43:03.231Z,99.90
2018-02-08T21:45:32.505Z,99.90
2018-02-08T21:48:01.795Z,99.90
2018-02-08T21:50:31.089Z,99.90
2018-02-08T21:53:00.353Z,99.90
2018-02-08T21:55:29.605Z,99.90
2018-02-08T21:58:00.389Z,99.90
2018-02-08T22:00:29.657Z,99.90
2018-02-08T22:02:59.693Z,99.90
2018-02-08T22:05:28.953Z,99.90
2018-02-08T22:07:58.230Z,99.90
2018-02-08T22:10:27.512Z,99.90
2018-02-08T22:12:57.420Z,99.90
2018-02-08T22:15:26.686Z,99.90
2018-02-08T22:17:55.967Z,99.90
2018-02-08T22:20:25.223Z,99.90
2018-02-08T22:22:54.487Z,99.90
2018-02-08T22:25:23.774Z,99.90
2018-02-08T22:27:53.056Z,99.90
2018-02-08T22:30:22.888Z,99.90
2018-02-08T22:32:52.203Z,99.90
2018-02-08T22:35:21.449Z,99.90
2018-02-08T22:37:50.761Z,99.90
2018-02-08T22:40:19.996Z,99.90
2018-02-08T22:42:49.279Z,99.90
2018-02-08T22:45:18.551Z,99.90
2018-02-08T22:47:47.809Z,99.90
2018-02-08T22:50:17.103Z,99.90
2018-02-08T22:52:46.357Z,99.90
2018-02-08T22:55:15.628Z,99.90
2018-02-08T22:57:45.641Z,99.90
2018-02-08T23:00:14.924Z,99.90
2018-02-08T23:02:44.229Z,99.90
2018-02-08T23:05:13.537Z,99.90
2018-02-08T23:07:42.789Z,99.90
2018-02-08T23:10:12.065Z,99.90
2018-02-08T23:12:41.323Z,99.90
2018-02-08T23:15:11.365Z,99.90
2018-02-08T23:17:40.635Z,99.90
2018-02-08T23:20:09.904Z,99.90
2018-02-08T23:22:39.193Z,99.90
2018-02-08T23:25:08.457Z,99.90
2018-02-08T23:27:38.485Z,99.90
2018-02-08T23:30:07.896Z,99.90
2018-02-08T23:32:37.404Z,99.90
2018-02-08T23:35:07.477Z,99.90
2018-02-08T23:37:36.757Z,99.90
2018-02-08T23:40:06.838Z,99.90
2018-02-08T23:42:36.094Z,99.90
2018-02-08T23:45:05.370Z,99.90
2018-02-08T23:47:34.624Z,99.90
2018-02-08T23:50:03.893Z,99.90
2018-02-08T23:52:33.213Z,99.90
2018-02-08T23:55:02.513Z,99.90
2018-02-08T23:57:32.553Z,99.90
